sensor_id;sensor_type;location;lat;lon;timestamp;pressure;altitude;pressure_sealevel;temperature;humidity
32875;BME280;40468;42.128;24.750;2023-10-09T00:00:01;99956.09;;;22.39;38.20
32875;BME280;40468;42.128;24.750;2023-10-09T00:01:56;99952.75;;;22.37;38.18
32875;BME280;40468;42.128;24.750;2023-10-09T00:03:29;99953.03;;;22.34;38.00
32875;BME280;40468;42.128;24.750;2023-10-09T00:05:00;99957.63;;;22.32;38.09
32875;BME280;40468;42.128;24.750;2023-10-09T00:06:32;99951.63;;;22.30;38.32
32875;BME280;40468;42.128;24.750;2023-10-09T00:08:07;99943.81;;;22.29;38.33
32875;BME280;40468;42.128;24.750;2023-10-09T00:09:39;99942.16;;;22.28;38.36
32875;BME280;40468;42.128;24.750;2023-10-09T00:11:17;99944.09;;;22.25;38.27
32875;BME280;40468;42.128;24.750;2023-10-09T00:12:48;99948.56;;;22.25;38.56
32875;BME280;40468;42.128;24.750;2023-10-09T00:14:22;99945.91;;;22.25;38.33
32875;BME280;40468;42.128;24.750;2023-10-09T00:15:53;99942.44;;;22.24;38.48
32875;BME280;40468;42.128;24.750;2023-10-09T00:17:29;99944.22;;;22.24;38.25
32875;BME280;40468;42.128;24.750;2023-10-09T00:19:01;99945.22;;;22.23;38.41
32875;BME280;40468;42.128;24.750;2023-10-09T00:20:44;99948.84;;;22.22;38.34
32875;BME280;40468;42.128;24.750;2023-10-09T00:22:23;99945.38;;;22.21;38.20
32875;BME280;40468;42.128;24.750;2023-10-09T00:23:59;99934.19;;;22.18;38.33
32875;BME280;40468;42.128;24.750;2023-10-09T00:25:33;99939.59;;;22.16;38.46
32875;BME280;40468;42.128;24.750;2023-10-09T00:27:06;99939.88;;;22.13;38.47
32875;BME280;40468;42.128;24.750;2023-10-09T00:28:42;99942.66;;;22.12;38.44
32875;BME280;40468;42.128;24.750;2023-10-09T00:30:16;99947.28;;;22.10;38.66
32875;BME280;40468;42.128;24.750;2023-10-09T00:31:49;99953.72;;;22.07;38.70
32875;BME280;40468;42.128;24.750;2023-10-09T00:33:21;99946.03;;;22.04;38.50
32875;BME280;40468;42.128;24.750;2023-10-09T00:34:53;99942.81;;;22.00;38.63
32875;BME280;40468;42.128;24.750;2023-10-09T00:36:28;99942.13;;;21.98;38.67
32875;BME280;40468;42.128;24.750;2023-10-09T00:38:00;99942.41;;;21.95;38.71
32875;BME280;40468;42.128;24.750;2023-10-09T00:39:50;99938.06;;;21.94;38.76
32875;BME280;40468;42.128;24.750;2023-10-09T00:41:27;99943.50;;;21.93;38.55
32875;BME280;40468;42.128;24.750;2023-10-09T00:42:59;99949.09;;;21.90;38.81
32875;BME280;40468;42.128;24.750;2023-10-09T00:44:35;99955.63;;;21.86;38.95
32875;BME280;40468;42.128;24.750;2023-10-09T00:46:13;99946.28;;;21.81;38.89
32875;BME280;40468;42.128;24.750;2023-10-09T00:47:54;99944.91;;;21.77;38.77
32875;BME280;40468;42.128;24.750;2023-10-09T00:49:29;99952.97;;;21.76;39.03
32875;BME280;40468;42.128;24.750;2023-10-09T00:51:01;99948.66;;;21.75;39.08
32875;BME280;40468;42.128;24.750;2023-10-09T00:52:34;99950.47;;;21.74;38.89
32875;BME280;40468;42.128;24.750;2023-10-09T00:54:13;99956.72;;;21.73;38.86
32875;BME280;40468;42.128;24.750;2023-10-09T00:55:44;99954.22;;;21.72;38.96
32875;BME280;40468;42.128;24.750;2023-10-09T00:57:25;99954.50;;;21.69;38.79
32875;BME280;40468;42.128;24.750;2023-10-09T00:58:57;99958.13;;;21.68;38.89
32875;BME280;40468;42.128;24.750;2023-10-09T01:00:38;99952.97;;;21.66;38.79
32875;BME280;40468;42.128;24.750;2023-10-09T01:02:18;99960.09;;;21.66;38.92
32875;BME280;40468;42.128;24.750;2023-10-09T01:03:49;99945.84;;;21.67;38.60
32875;BME280;40468;42.128;24.750;2023-10-09T01:05:21;99953.69;;;21.68;38.50
32875;BME280;40468;42.128;24.750;2023-10-09T01:06:56;99956.31;;;21.68;38.44
32875;BME280;40468;42.128;24.750;2023-10-09T01:08:38;99955.34;;;21.69;38.38
32875;BME280;40468;42.128;24.750;2023-10-09T01:10:13;99963.13;;;21.71;38.19
32875;BME280;40468;42.128;24.750;2023-10-09T01:11:46;99964.97;;;21.70;38.27
32875;BME280;40468;42.128;24.750;2023-10-09T01:13:33;99977.38;;;21.70;37.99
32875;BME280;40468;42.128;24.750;2023-10-09T01:15:22;99977.25;;;21.71;38.08
32875;BME280;40468;42.128;24.750;2023-10-09T01:17:13;99979.91;;;21.71;37.99
32875;BME280;40468;42.128;24.750;2023-10-09T01:19:00;99987.84;;;21.71;37.99
32875;BME280;40468;42.128;24.750;2023-10-09T01:20:43;99988.69;;;21.72;37.94
32875;BME280;40468;42.128;24.750;2023-10-09T01:22:15;99992.28;;;21.71;37.85
32875;BME280;40468;42.128;24.750;2023-10-09T01:23:53;99991.34;;;21.72;37.79
32875;BME280;40468;42.128;24.750;2023-10-09T01:25:33;99997.31;;;21.74;37.74
32875;BME280;40468;42.128;24.750;2023-10-09T01:27:13;99998.31;;;21.73;37.95
32875;BME280;40468;42.128;24.750;2023-10-09T01:28:45;99998.47;;;21.71;37.66
32875;BME280;40468;42.128;24.750;2023-10-09T01:30:16;99998.59;;;21.70;37.73
32875;BME280;40468;42.128;24.750;2023-10-09T01:31:48;100005.69;;;21.69;37.58
32875;BME280;40468;42.128;24.750;2023-10-09T01:33:22;100006.69;;;21.68;37.92
32875;BME280;40468;42.128;24.750;2023-10-09T01:34:56;100018.25;;;21.67;37.84
32875;BME280;40468;42.128;24.750;2023-10-09T01:36:28;100012.94;;;21.67;37.79
32875;BME280;40468;42.128;24.750;2023-10-09T01:38:02;100017.41;;;21.67;37.71
32875;BME280;40468;42.128;24.750;2023-10-09T01:39:41;100022.00;;;21.65;37.71
32875;BME280;40468;42.128;24.750;2023-10-09T01:41:15;100027.72;;;21.60;37.74
32875;BME280;40468;42.128;24.750;2023-10-09T01:42:49;100029.91;;;21.55;37.84
32875;BME280;40468;42.128;24.750;2023-10-09T01:44:21;100024.88;;;21.52;37.85
32875;BME280;40468;42.128;24.750;2023-10-09T01:45:52;100029.34;;;21.51;37.94
32875;BME280;40468;42.128;24.750;2023-10-09T01:47:24;100029.34;;;21.51;37.94
32875;BME280;40468;42.128;24.750;2023-10-09T01:48:56;100030.47;;;21.49;37.94
32875;BME280;40468;42.128;24.750;2023-10-09T01:50:29;100033.09;;;21.49;38.10
32875;BME280;40468;42.128;24.750;2023-10-09T01:52:01;100033.38;;;21.46;37.82
32875;BME280;40468;42.128;24.750;2023-10-09T01:53:37;100034.47;;;21.43;37.99
32875;BME280;40468;42.128;24.750;2023-10-09T01:55:10;100046.59;;;21.36;38.41
32875;BME280;40468;42.128;24.750;2023-10-09T01:56:43;100036.50;;;21.30;38.59
32875;BME280;40468;42.128;24.750;2023-10-09T01:58:17;100048.56;;;21.23;38.69
32875;BME280;40468;42.128;24.750;2023-10-09T01:59:54;100052.00;;;21.13;38.78
32875;BME280;40468;42.128;24.750;2023-10-09T02:01:24;100051.56;;;21.08;39.03
32875;BME280;40468;42.128;24.750;2023-10-09T02:02:57;100057.38;;;21.02;39.13
32875;BME280;40468;42.128;24.750;2023-10-09T02:04:33;100061.25;;;20.98;39.20
32875;BME280;40468;42.128;24.750;2023-10-09T02:06:05;100057.06;;;20.96;39.06
32875;BME280;40468;42.128;24.750;2023-10-09T02:07:47;100062.50;;;20.94;38.97
32875;BME280;40468;42.128;24.750;2023-10-09T02:09:22;100064.44;;;20.92;39.19
32875;BME280;40468;42.128;24.750;2023-10-09T02:11:01;100065.38;;;20.91;38.93
32875;BME280;40468;42.128;24.750;2023-10-09T02:12:33;100073.72;;;20.86;39.12
32875;BME280;40468;42.128;24.750;2023-10-09T02:14:05;100084.41;;;20.85;39.20
32875;BME280;40468;42.128;24.750;2023-10-09T02:15:49;100089.97;;;20.82;39.35
32875;BME280;40468;42.128;24.750;2023-10-09T02:17:24;100090.22;;;20.79;39.37
32875;BME280;40468;42.128;24.750;2023-10-09T02:18:59;100102.16;;;20.73;39.68
32875;BME280;40468;42.128;24.750;2023-10-09T02:20:30;100107.13;;;20.66;39.95
32875;BME280;40468;42.128;24.750;2023-10-09T02:22:02;100108.47;;;20.61;39.99
32875;BME280;40468;42.128;24.750;2023-10-09T02:23:42;100120.53;;;20.54;40.73
32875;BME280;40468;42.128;24.750;2023-10-09T02:25:19;100138.22;;;20.31;41.74
32875;BME280;40468;42.128;24.750;2023-10-09T02:26:54;100155.91;;;19.96;42.51
32875;BME280;40468;42.128;24.750;2023-10-09T02:28:37;100152.69;;;19.70;42.46
32875;BME280;40468;42.128;24.750;2023-10-09T02:30:10;100171.13;;;19.48;43.09
32875;BME280;40468;42.128;24.750;2023-10-09T02:31:49;100165.78;;;19.25;43.33
32875;BME280;40468;42.128;24.750;2023-10-09T02:33:21;100175.22;;;19.05;43.51
32875;BME280;40468;42.128;24.750;2023-10-09T02:34:57;100175.72;;;18.86;43.73
32875;BME280;40468;42.128;24.750;2023-10-09T02:36:38;100184.13;;;18.68;43.72
32875;BME280;40468;42.128;24.750;2023-10-09T02:38:19;100194.44;;;18.47;43.84
32875;BME280;40468;42.128;24.750;2023-10-09T02:39:53;100201.72;;;18.30;44.00
32875;BME280;40468;42.128;24.750;2023-10-09T02:41:25;100195.75;;;18.15;44.00
32875;BME280;40468;42.128;24.750;2023-10-09T02:43:01;100214.44;;;18.00;44.06
32875;BME280;40468;42.128;24.750;2023-10-09T02:44:33;100215.28;;;17.87;44.21
32875;BME280;40468;42.128;24.750;2023-10-09T02:46:09;100218.94;;;17.72;44.29
32875;BME280;40468;42.128;24.750;2023-10-09T02:47:47;100221.66;;;17.58;44.53
32875;BME280;40468;42.128;24.750;2023-10-09T02:49:18;100221.97;;;17.40;44.84
32875;BME280;40468;42.128;24.750;2023-10-09T02:50:51;100228.88;;;17.28;44.95
32875;BME280;40468;42.128;24.750;2023-10-09T02:52:21;100226.84;;;17.19;44.91
32875;BME280;40468;42.128;24.750;2023-10-09T02:53:55;100242.09;;;17.14;44.98
32875;BME280;40468;42.128;24.750;2023-10-09T02:55:27;100243.66;;;17.04;45.02
32875;BME280;40468;42.128;24.750;2023-10-09T02:56:59;100260.13;;;16.93;45.20
32875;BME280;40468;42.128;24.750;2023-10-09T02:58:40;100254.06;;;16.78;45.41
32875;BME280;40468;42.128;24.750;2023-10-09T03:00:13;100266.09;;;16.68;45.42
32875;BME280;40468;42.128;24.750;2023-10-09T03:01:49;100274.63;;;16.57;45.69
32875;BME280;40468;42.128;24.750;2023-10-09T03:03:22;100257.66;;;16.49;45.94
32875;BME280;40468;42.128;24.750;2023-10-09T03:04:55;100248.63;;;16.38;45.77
32875;BME280;40468;42.128;24.750;2023-10-09T03:06:27;100252.59;;;16.31;46.25
32875;BME280;40468;42.128;24.750;2023-10-09T03:08:01;100253.81;;;16.26;46.24
32875;BME280;40468;42.128;24.750;2023-10-09T03:09:32;100266.56;;;16.18;46.44
32875;BME280;40468;42.128;24.750;2023-10-09T03:11:05;100257.38;;;16.10;46.30
32875;BME280;40468;42.128;24.750;2023-10-09T03:12:43;100273.59;;;16.03;46.52
32875;BME280;40468;42.128;24.750;2023-10-09T03:14:15;100273.88;;;15.98;46.56
32875;BME280;40468;42.128;24.750;2023-10-09T03:15:47;100274.06;;;15.95;46.35
32875;BME280;40468;42.128;24.750;2023-10-09T03:17:18;100277.63;;;15.94;46.72
32875;BME280;40468;42.128;24.750;2023-10-09T03:18:51;100278.75;;;15.90;46.50
32875;BME280;40468;42.128;24.750;2023-10-09T03:20:22;100272.06;;;15.84;46.68
32875;BME280;40468;42.128;24.750;2023-10-09T03:21:54;100283.78;;;15.79;46.84
32875;BME280;40468;42.128;24.750;2023-10-09T03:23:27;100281.28;;;15.77;46.77
32875;BME280;40468;42.128;24.750;2023-10-09T03:24:59;100291.78;;;15.77;46.80
32875;BME280;40468;42.128;24.750;2023-10-09T03:26:31;100286.59;;;15.76;46.70
32875;BME280;40468;42.128;24.750;2023-10-09T03:28:02;100295.50;;;15.73;46.88
32875;BME280;40468;42.128;24.750;2023-10-09T03:29:35;100300.94;;;15.70;46.93
32875;BME280;40468;42.128;24.750;2023-10-09T03:31:07;100296.75;;;15.66;46.69
32875;BME280;40468;42.128;24.750;2023-10-09T03:32:40;100295.16;;;15.63;47.00
32875;BME280;40468;42.128;24.750;2023-10-09T03:34:10;100300.41;;;15.63;46.86
32875;BME280;40468;42.128;24.750;2023-10-09T03:35:42;100304.91;;;15.61;46.79
32875;BME280;40468;42.128;24.750;2023-10-09T03:37:13;100321.69;;;15.59;46.88
32875;BME280;40468;42.128;24.750;2023-10-09T03:39:03;100310.59;;;15.54;47.03
32875;BME280;40468;42.128;24.750;2023-10-09T03:40:48;100305.78;;;15.46;47.25
32875;BME280;40468;42.128;24.750;2023-10-09T03:42:20;100305.97;;;15.43;46.90
32875;BME280;40468;42.128;24.750;2023-10-09T03:43:50;100309.53;;;15.42;47.03
32875;BME280;40468;42.128;24.750;2023-10-09T03:45:23;100313.06;;;15.41;47.03
32875;BME280;40468;42.128;24.750;2023-10-09T03:46:57;100314.78;;;15.42;46.89
32875;BME280;40468;42.128;24.750;2023-10-09T03:48:28;100316.75;;;15.38;47.15
32875;BME280;40468;42.128;24.750;2023-10-09T03:50:02;100317.00;;;15.34;47.44
32875;BME280;40468;42.128;24.750;2023-10-09T03:51:54;100332.13;;;15.29;47.40
32875;BME280;40468;42.128;24.750;2023-10-09T03:53:25;100339.16;;;15.28;47.08
32875;BME280;40468;42.128;24.750;2023-10-09T03:54:56;100331.56;;;15.23;47.28
32875;BME280;40468;42.128;24.750;2023-10-09T03:56:28;100332.59;;;15.21;47.62
32875;BME280;40468;42.128;24.750;2023-10-09T03:57:58;100327.59;;;15.16;47.68
32875;BME280;40468;42.128;24.750;2023-10-09T03:59:31;100329.59;;;15.11;47.61
32875;BME280;40468;42.128;24.750;2023-10-09T04:01:08;100335.03;;;15.08;47.46
32875;BME280;40468;42.128;24.750;2023-10-09T04:02:43;100350.94;;;15.05;47.45
32875;BME280;40468;42.128;24.750;2023-10-09T04:04:15;100341.56;;;15.01;47.29
32875;BME280;40468;42.128;24.750;2023-10-09T04:05:46;100353.16;;;14.97;47.49
32875;BME280;40468;42.128;24.750;2023-10-09T04:09:08;100359.91;;;14.85;47.77
32875;BME280;40468;42.128;24.750;2023-10-09T04:10:44;100353.97;;;14.82;47.50
32875;BME280;40468;42.128;24.750;2023-10-09T04:12:21;100347.13;;;14.79;47.54
32875;BME280;40468;42.128;24.750;2023-10-09T04:13:55;100348.88;;;14.78;47.53
32875;BME280;40468;42.128;24.750;2023-10-09T04:15:30;100354.13;;;14.78;47.57
32875;BME280;40468;42.128;24.750;2023-10-09T04:17:02;100358.63;;;14.76;47.38
32875;BME280;40468;42.128;24.750;2023-10-09T04:18:36;100351.66;;;14.75;47.65
32875;BME280;40468;42.128;24.750;2023-10-09T04:20:09;100351.50;;;14.78;47.54
32875;BME280;40468;42.128;24.750;2023-10-09T04:22:17;100359.38;;;14.78;47.50
32875;BME280;40468;42.128;24.750;2023-10-09T04:23:57;100372.41;;;14.80;47.45
32875;BME280;40468;42.128;24.750;2023-10-09T04:25:39;100371.63;;;14.78;47.39
32875;BME280;40468;42.128;24.750;2023-10-09T04:27:15;100368.28;;;14.76;47.28
32875;BME280;40468;42.128;24.750;2023-10-09T04:28:47;100374.41;;;14.75;47.33
32875;BME280;40468;42.128;24.750;2023-10-09T04:30:21;100376.28;;;14.73;47.54
32875;BME280;40468;42.128;24.750;2023-10-09T04:31:53;100380.84;;;14.69;47.34
32875;BME280;40468;42.128;24.750;2023-10-09T04:33:27;100384.41;;;14.68;47.12
32875;BME280;40468;42.128;24.750;2023-10-09T04:34:58;100394.09;;;14.66;46.98
32875;BME280;40468;42.128;24.750;2023-10-09T04:36:50;100389.88;;;14.64;46.72
32875;BME280;40468;42.128;24.750;2023-10-09T04:38:26;100392.59;;;14.62;46.85
32875;BME280;40468;42.128;24.750;2023-10-09T04:40:04;100399.66;;;14.60;46.81
32875;BME280;40468;42.128;24.750;2023-10-09T04:41:42;100388.56;;;14.55;46.59
32875;BME280;40468;42.128;24.750;2023-10-09T04:43:22;100394.84;;;14.52;46.46
32875;BME280;40468;42.128;24.750;2023-10-09T04:44:53;100384.88;;;14.42;46.46
32875;BME280;40468;42.128;24.750;2023-10-09T04:46:50;100391.06;;;14.41;46.44
32875;BME280;40468;42.128;24.750;2023-10-09T04:48:37;100393.75;;;14.39;46.27
32875;BME280;40468;42.128;24.750;2023-10-09T04:50:09;100392.13;;;14.37;46.47
32875;BME280;40468;42.128;24.750;2023-10-09T04:51:41;100396.63;;;14.34;46.34
32875;BME280;40468;42.128;24.750;2023-10-09T04:53:29;100406.38;;;14.31;46.22
32875;BME280;40468;42.128;24.750;2023-10-09T04:55:07;100405.63;;;14.29;46.30
32875;BME280;40468;42.128;24.750;2023-10-09T04:56:49;100415.16;;;14.30;46.34
32875;BME280;40468;42.128;24.750;2023-10-09T04:58:23;100417.84;;;14.28;46.30
32875;BME280;40468;42.128;24.750;2023-10-09T04:59:55;100420.56;;;14.27;45.98
32875;BME280;40468;42.128;24.750;2023-10-09T05:01:28;100423.25;;;14.25;45.94
32875;BME280;40468;42.128;24.750;2023-10-09T05:03:06;100421.56;;;14.24;46.01
32875;BME280;40468;42.128;24.750;2023-10-09T05:04:42;100428.50;;;14.25;45.67
32875;BME280;40468;42.128;24.750;2023-10-09T05:06:17;100431.22;;;14.24;45.67
32875;BME280;40468;42.128;24.750;2023-10-09T05:07:51;100423.50;;;14.21;45.79
32875;BME280;40468;42.128;24.750;2023-10-09T05:09:27;100434.03;;;14.19;45.78
32875;BME280;40468;42.128;24.750;2023-10-09T05:11:17;100429.69;;;14.20;45.83
32875;BME280;40468;42.128;24.750;2023-10-09T05:13:03;100426.19;;;14.19;45.82
32875;BME280;40468;42.128;24.750;2023-10-09T05:14:38;100430.56;;;14.19;45.37
32875;BME280;40468;42.128;24.750;2023-10-09T05:16:10;100436.91;;;14.15;45.34
32875;BME280;40468;42.128;24.750;2023-10-09T05:17:45;100431.72;;;14.13;45.47
32875;BME280;40468;42.128;24.750;2023-10-09T05:19:26;100429.09;;;14.13;45.41
32875;BME280;40468;42.128;24.750;2023-10-09T05:21:16;100422.19;;;14.12;45.43
32875;BME280;40468;42.128;24.750;2023-10-09T05:23:07;100433.44;;;14.14;45.37
32875;BME280;40468;42.128;24.750;2023-10-09T05:24:56;100437.75;;;14.15;45.12
32875;BME280;40468;42.128;24.750;2023-10-09T05:26:28;100439.28;;;14.19;44.99
32875;BME280;40468;42.128;24.750;2023-10-09T05:28:21;100453.16;;;14.21;44.72
32875;BME280;40468;42.128;24.750;2023-10-09T05:30:33;100453.09;;;14.23;44.71
32875;BME280;40468;42.128;24.750;2023-10-09T05:32:06;100453.16;;;14.21;44.34
32875;BME280;40468;42.128;24.750;2023-10-09T05:33:45;100455.94;;;14.18;44.02
32875;BME280;40468;42.128;24.750;2023-10-09T05:35:16;100459.69;;;14.13;43.92
32875;BME280;40468;42.128;24.750;2023-10-09T05:36:50;100465.94;;;14.10;43.79
32875;BME280;40468;42.128;24.750;2023-10-09T05:38:20;100466.94;;;14.07;43.61
32875;BME280;40468;42.128;24.750;2023-10-09T05:39:54;100470.47;;;14.06;43.27
32875;BME280;40468;42.128;24.750;2023-10-09T05:41:49;100488.97;;;14.03;43.17
32875;BME280;40468;42.128;24.750;2023-10-09T05:43:29;100480.25;;;14.03;43.31
32875;BME280;40468;42.128;24.750;2023-10-09T05:45:18;100475.91;;;14.02;43.12
32875;BME280;40468;42.128;24.750;2023-10-09T05:47:09;100475.88;;;14.03;42.90
32875;BME280;40468;42.128;24.750;2023-10-09T05:48:58;100476.78;;;14.02;43.11
32875;BME280;40468;42.128;24.750;2023-10-09T05:50:39;100482.88;;;14.03;43.32
32875;BME280;40468;42.128;24.750;2023-10-09T05:52:30;100480.25;;;14.03;43.20
32875;BME280;40468;42.128;24.750;2023-10-09T05:54:31;100501.22;;;14.03;43.46
32875;BME280;40468;42.128;24.750;2023-10-09T05:56:20;100496.13;;;14.00;43.47
32875;BME280;40468;42.128;24.750;2023-10-09T05:58:05;100510.91;;;14.01;43.29
32875;BME280;40468;42.128;24.750;2023-10-09T05:59:54;100502.13;;;14.02;43.28
32875;BME280;40468;42.128;24.750;2023-10-09T06:01:43;100497.59;;;14.05;43.24
32875;BME280;40468;42.128;24.750;2023-10-09T06:03:33;100504.38;;;14.09;43.14
32875;BME280;40468;42.128;24.750;2023-10-09T06:05:19;100504.16;;;14.14;43.01
32875;BME280;40468;42.128;24.750;2023-10-09T06:07:05;100505.50;;;14.23;43.28
32875;BME280;40468;42.128;24.750;2023-10-09T06:08:44;100512.03;;;14.31;42.86
32875;BME280;40468;42.128;24.750;2023-10-09T06:10:38;100516.84;;;14.41;42.58
32875;BME280;40468;42.128;24.750;2023-10-09T06:12:10;100526.22;;;14.45;42.60
32875;BME280;40468;42.128;24.750;2023-10-09T06:14:00;100523.28;;;14.52;42.53
32875;BME280;40468;42.128;24.750;2023-10-09T06:15:38;100527.31;;;14.58;42.43
32875;BME280;40468;42.128;24.750;2023-10-09T06:17:38;100528.94;;;14.61;42.08
32875;BME280;40468;42.128;24.750;2023-10-09T06:19:21;100536.59;;;14.65;42.22
32875;BME280;40468;42.128;24.750;2023-10-09T06:20:56;100540.91;;;14.66;42.11
32875;BME280;40468;42.128;24.750;2023-10-09T06:22:39;100553.25;;;14.64;41.62
32875;BME280;40468;42.128;24.750;2023-10-09T06:24:45;100555.25;;;14.59;41.93
32875;BME280;40468;42.128;24.750;2023-10-09T06:26:24;100558.88;;;14.56;41.71
32875;BME280;40468;42.128;24.750;2023-10-09T06:27:56;100569.50;;;14.53;41.69
32875;BME280;40468;42.128;24.750;2023-10-09T06:29:28;100573.09;;;14.51;41.64
32875;BME280;40468;42.128;24.750;2023-10-09T06:31:05;100582.03;;;14.47;41.67
32875;BME280;40468;42.128;24.750;2023-10-09T06:33:15;100576.03;;;14.45;41.76
32875;BME280;40468;42.128;24.750;2023-10-09T06:35:03;100579.63;;;14.42;41.86
32875;BME280;40468;42.128;24.750;2023-10-09T06:36:49;100577.25;;;14.38;41.74
32875;BME280;40468;42.128;24.750;2023-10-09T06:38:37;100595.75;;;14.34;41.95
32875;BME280;40468;42.128;24.750;2023-10-09T06:40:47;100603.81;;;14.30;41.90
32875;BME280;40468;42.128;24.750;2023-10-09T06:42:49;100603.81;;;14.30;41.86
32875;BME280;40468;42.128;24.750;2023-10-09T06:44:35;100606.44;;;14.30;41.96
32875;BME280;40468;42.128;24.750;2023-10-09T06:46:20;100604.50;;;14.33;42.01
32875;BME280;40468;42.128;24.750;2023-10-09T06:48:13;100600.84;;;14.38;41.91
32875;BME280;40468;42.128;24.750;2023-10-09T06:50:16;100593.88;;;14.37;41.71
32875;BME280;40468;42.128;24.750;2023-10-09T06:52:20;100603.06;;;14.45;41.58
32875;BME280;40468;42.128;24.750;2023-10-09T06:54:11;100613.28;;;14.51;41.52
32875;BME280;40468;42.128;24.750;2023-10-09T06:55:45;100620.34;;;14.49;41.90
32875;BME280;40468;42.128;24.750;2023-10-09T06:57:20;100625.66;;;14.48;41.92
32875;BME280;40468;42.128;24.750;2023-10-09T06:59:06;100626.59;;;14.47;41.73
32875;BME280;40468;42.128;24.750;2023-10-09T07:00:46;100628.44;;;14.45;41.67
32875;BME280;40468;42.128;24.750;2023-10-09T07:02:47;100631.91;;;14.45;41.58
32875;BME280;40468;42.128;24.750;2023-10-09T07:17:27;100640.28;;;14.53;41.74
32875;BME280;40468;42.128;24.750;2023-10-09T07:19:56;100640.19;;;14.55;41.81
32875;BME280;40468;42.128;24.750;2023-10-09T07:21:42;100636.50;;;14.59;41.84
32875;BME280;40468;42.128;24.750;2023-10-09T07:26:03;100646.19;;;14.76;41.67
32875;BME280;40468;42.128;24.750;2023-10-09T07:29:58;100640.50;;;15.02;41.46
32875;BME280;40468;42.128;24.750;2023-10-09T07:32:08;100633.06;;;15.28;41.19
32875;BME280;40468;42.128;24.750;2023-10-09T07:44:27;100641.63;;;17.95;38.23
32875;BME280;40468;42.128;24.750;2023-10-09T07:48:48;100639.09;;;18.49;37.21
32875;BME280;40468;42.128;24.750;2023-10-09T07:50:34;100639.00;;;19.56;35.06
32875;BME280;40468;42.128;24.750;2023-10-09T07:52:27;100635.59;;;19.92;34.71
32875;BME280;40468;42.128;24.750;2023-10-09T07:53:59;100638.63;;;20.36;34.53
32875;BME280;40468;42.128;24.750;2023-10-09T07:55:39;100631.53;;;20.84;33.66
32875;BME280;40468;42.128;24.750;2023-10-09T07:57:16;100627.94;;;21.32;33.49
32875;BME280;40468;42.128;24.750;2023-10-09T07:58:47;100637.63;;;21.55;32.60
32875;BME280;40468;42.128;24.750;2023-10-09T08:00:20;100627.25;;;21.41;32.11
32875;BME280;40468;42.128;24.750;2023-10-09T08:02:06;100626.78;;;21.36;32.13
32875;BME280;40468;42.128;24.750;2023-10-09T08:03:43;100625.72;;;21.39;31.93
32875;BME280;40468;42.128;24.750;2023-10-09T08:05:17;100618.81;;;21.47;32.09
32875;BME280;40468;42.128;24.750;2023-10-09T08:06:53;100626.69;;;21.71;32.24
32875;BME280;40468;42.128;24.750;2023-10-09T08:08:23;100620.75;;;21.90;31.97
32875;BME280;40468;42.128;24.750;2023-10-09T08:10:15;100621.44;;;22.37;31.87
32875;BME280;40468;42.128;24.750;2023-10-09T08:12:04;100622.59;;;22.77;31.00
32875;BME280;40468;42.128;24.750;2023-10-09T08:14:01;100619.97;;;22.98;30.54
32875;BME280;40468;42.128;24.750;2023-10-09T08:15:35;100622.78;;;23.17;30.53
32875;BME280;40468;42.128;24.750;2023-10-09T08:17:21;100612.19;;;23.27;29.91
32875;BME280;40468;42.128;24.750;2023-10-09T08:18:53;100610.13;;;23.30;30.21
32875;BME280;40468;42.128;24.750;2023-10-09T08:20:27;100615.88;;;23.35;29.88
32875;BME280;40468;42.128;24.750;2023-10-09T08:22:06;100625.59;;;23.46;29.84
32875;BME280;40468;42.128;24.750;2023-10-09T08:24:12;100614.94;;;23.67;29.79
32875;BME280;40468;42.128;24.750;2023-10-09T08:25:58;100618.13;;;23.92;29.73
32875;BME280;40468;42.128;24.750;2023-10-09T08:27:42;100624.91;;;23.75;28.94
32875;BME280;40468;42.128;24.750;2023-10-09T08:29:24;100622.88;;;23.36;29.06
32875;BME280;40468;42.128;24.750;2023-10-09T08:31:09;100620.84;;;23.19;29.91
32875;BME280;40468;42.128;24.750;2023-10-09T08:32:49;100620.69;;;23.42;29.74
32875;BME280;40468;42.128;24.750;2023-10-09T08:34:34;100607.22;;;23.64;29.91
32875;BME280;40468;42.128;24.750;2023-10-09T08:36:18;100607.09;;;23.96;29.75
32875;BME280;40468;42.128;24.750;2023-10-09T08:37:53;100609.50;;;24.19;29.54
32875;BME280;40468;42.128;24.750;2023-10-09T08:41:42;100605.22;;;24.47;29.04
32875;BME280;40468;42.128;24.750;2023-10-09T08:44:00;100605.22;;;24.57;28.95
32875;BME280;40468;42.128;24.750;2023-10-09T08:45:46;100604.94;;;24.69;28.91
32875;BME280;40468;42.128;24.750;2023-10-09T08:52:14;100600.72;;;24.57;29.32
32875;BME280;40468;42.128;24.750;2023-10-09T08:56:22;100592.88;;;24.85;29.05
32875;BME280;40468;42.128;24.750;2023-10-09T08:56:35;100593.31;;;24.70;29.14
32875;BME280;40468;42.128;24.750;2023-10-09T08:58:18;100590.88;;;25.06;29.00
32875;BME280;40468;42.128;24.750;2023-10-09T09:06:45;100581.41;;;24.65;28.75
32875;BME280;40468;42.128;24.750;2023-10-09T09:08:24;100576.34;;;24.62;29.23
32875;BME280;40468;42.128;24.750;2023-10-09T09:09:56;100579.84;;;24.82;29.40
32875;BME280;40468;42.128;24.750;2023-10-09T09:11:27;100577.13;;;25.01;29.04
32875;BME280;40468;42.128;24.750;2023-10-09T09:13:06;100585.69;;;25.05;28.79
32875;BME280;40468;42.128;24.750;2023-10-09T09:14:48;100570.69;;;25.13;28.91
32875;BME280;40468;42.128;24.750;2023-10-09T09:16:21;100564.38;;;25.14;28.87
32875;BME280;40468;42.128;24.750;2023-10-09T09:17:52;100572.66;;;24.92;28.48
32875;BME280;40468;42.128;24.750;2023-10-09T09:19:36;100569.59;;;24.77;29.01